CEST,Max TemperatureF,Mean TemperatureF,Min TemperatureF,Max Dew PointF,MeanDew PointF,Min DewpointF,Max Humidity, Mean Humidity, Min Humidity, Max Sea Level PressureIn, Mean Sea Level PressureIn, Min Sea Level PressureIn, Max VisibilityMiles, Mean VisibilityMiles, Min VisibilityMiles, Max Wind SpeedMPH, Mean Wind SpeedMPH, Max Gust SpeedMPH,PrecipitationIn, CloudCover, Events, WindDirDegrees
2012-6-1,69,63,57,55,53,52,82,70,53,30.15,30.10,30.06,6,6,6,10,6,,0.00,6,,311
2012-6-2,77,66,55,57,55,52,94,66,47,30.06,29.94,29.80,6,6,4,12,6,23,0.00,3,,78
2012-6-3,69,64,59,63,55,50,94,75,59,29.86,29.80,29.68,6,6,1,18,10,,0.00,6,Rain-Thunderstorm,252
2012-6-4,59,54,50,55,50,43,94,80,67,30.09,29.93,29.86,6,6,2,20,9,,0.00,5,Rain,275
2012-6-5,62,53,44,52,43,39,93,69,45,30.12,30.04,29.86,6,6,6,12,6,20,0.00,6,Rain,126
2012-6-6,68,62,55,55,52,46,94,71,49,29.83,29.75,29.71,6,6,6,17,12,29,0.00,6,Rain,218
2012-6-7,71,65,59,63,54,46,94,73,46,29.74,29.61,29.47,6,6,2,26,10,37,0.00,4,Rain,182
2012-6-8,66,62,57,55,48,41,82,64,40,29.92,29.76,29.65,6,6,6,22,17,36,0.00,3,Rain,228
2012-6-9,64,57,50,48,43,39,82,60,42,30.01,29.98,29.92,6,6,6,17,10,,0.00,4,Rain,239
2012-6-10,64,58,53,55,49,46,94,73,52,29.95,29.82,29.68,6,6,2,13,7,24,0.00,6,Rain,157
2012-6-11,66,60,55,55,52,46,100,78,52,29.68,29.61,29.59,6,6,2,15,9,,0.00,6,Rain,232
2012-6-12,60,56,51,54,51,46,94,83,72,29.86,29.69,29.59,6,6,2,15,8,,0.00,6,Rain,260
2012-6-13,60,55,50,52,49,46,94,82,59,30.06,29.99,29.86,6,6,3,14,9,,0.00,6,Rain-Thunderstorm,344
2012-6-14,69,60,50,52,49,45,94,69,43,30.06,30.02,29.92,6,6,4,14,8,,0.00,5,Fog,101
2012-6-15,69,64,59,57,54,50,94,74,52,29.98,29.93,29.86,6,6,2,21,11,26,0.00,6,Rain,197
2012-6-16,66,62,59,57,55,46,94,81,55,30.06,29.98,29.92,6,6,6,18,11,26,0.00,5,Rain,204
2012-6-17,69,61,53,50,46,43,82,58,38,30.18,30.12,30.01,6,6,6,14,11,,0.00,2,,206
2012-6-18,66,60,55,55,52,50,94,75,59,30.15,30.02,29.80,6,6,0,25,9,47,0.00,6,Rain-Thunderstorm,330
2012-6-19,66,60,53,55,51,50,88,76,60,30.15,30.09,30.04,6,6,6,10,6,,0.00,6,Rain,27
2012-6-20,73,63,53,55,54,52,94,71,47,30.04,29.98,29.89,6,5,1,9,6,,0.00,3,Rain,22
2012-6-21,77,70,60,64,57,46,94,73,49,29.95,29.81,29.68,6,6,4,23,10,25,0.00,5,Rain-Thunderstorm,159
2012-6-22,69,62,55,50,47,41,77,57,35,30.18,30.07,29.95,6,6,6,21,17,31,0.00,4,Rain,229
2012-6-23,69,62,55,50,47,43,82,59,40,30.27,30.22,30.18,6,6,6,10,7,21,0.00,6,,250
2012-6-24,60,58,57,59,51,43,94,77,52,30.18,30.06,30.01,6,4,1,20,9,31,0.00,6,Rain,225
2012-6-25,68,60,53,55,50,46,100,74,46,30.15,30.10,30.06,6,6,6,12,6,,0.00,5,,286
2012-6-26,69,64,59,61,57,48,94,79,59,30.21,30.16,30.12,6,6,1,9,4,,0.00,6,Rain,160
2012-6-27,78,69,60,63,61,59,94,73,57,30.21,30.11,29.98,6,6,5,13,4,17,0.00,5,,149
2012-6-28,89,78,66,66,63,61,83,67,40,29.95,29.77,29.68,6,6,6,17,10,30,0.00,5,Rain-Thunderstorm,133
2012-6-29,75,68,60,66,54,50,88,63,46,29.89,29.83,29.74,6,6,6,15,9,24,0.00,6,Rain-Thunderstorm,230
2012-6-30,73,66,59,54,52,50,77,61,44,29.95,29.90,29.89,6,6,6,20,10,33,0.00,2,,226